Time;durP1;ratioP1;P1;durP2;ratioP2;P2;SDS_P1;SDS_P2;PMS_P1;PMS_P2;Temp;Humidity;BMP_temperature;BMP_pressure;BME280_temperature;BME280_humidity;BME280_pressure;Samples;Min_cycle;Max_cycle;Signal;HPM_P1;HPM_P2
2021/05/25 00:01:09;;;;;;;10.25;4.08;;;;;;;9.26;95.44;100128.30;1591054;90;20970;-72
2021/05/25 00:03:36;;;;;;;10.38;4.87;;;;;;;9.24;95.64;100132.47;1591061;90;21042;-72
2021/05/25 00:06:03;;;;;;;10.90;5.10;;;;;;;9.21;95.71;100129.76;1591023;90;21080;-72
2021/05/25 00:08:30;;;;;;;15.95;5.35;;;;;;;9.19;95.75;100137.45;1590928;90;20930;-73
2021/05/25 00:10:56;;;;;;;13.45;5.53;;;;;;;9.17;95.74;100132.83;1590972;90;20974;-72
2021/05/25 00:13:23;;;;;;;17.07;6.10;;;;;;;9.16;95.79;100132.56;1590951;89;21684;-72
2021/05/25 00:15:53;;;;;;;12.18;6.10;;;;;;;9.15;95.81;100132.85;1591032;89;20975;-72
2021/05/25 00:18:18;;;;;;;10.35;5.28;;;;;;;9.12;95.82;100142.47;1590974;90;21100;-72
2021/05/25 00:20:48;;;;;;;15.00;6.35;;;;;;;9.10;95.74;100143.31;1590946;89;21620;-71
2021/05/25 00:23:15;;;;;;;13.10;6.90;;;;;;;9.06;95.67;100150.48;1590931;90;21628;-71
2021/05/25 00:25:41;;;;;;;14.83;6.35;;;;;;;9.02;95.89;100144.50;1591133;89;20962;-73
2021/05/25 00:28:08;;;;;;;12.70;5.80;;;;;;;8.98;96.19;100148.38;1591157;89;21556;-71
2021/05/25 00:30:34;;;;;;;16.75;5.83;;;;;;;8.98;96.32;100148.38;1591055;89;21612;-71
2021/05/25 00:33:01;;;;;;;10.82;5.65;;;;;;;8.97;96.24;100151.41;1590368;88;21069;-72
2021/05/25 00:35:33;;;;;;;8.88;5.12;;;;;;;8.93;96.17;100153.91;1588139;90;20926;-71
2021/05/25 00:37:56;;;;;;;20.12;6.85;;;;;;;8.90;96.04;100149.00;1587556;90;21049;-72
2021/05/25 00:40:23;;;;;;;11.05;6.37;;;;;;;8.89;95.96;100152.30;1588281;90;21054;-72
2021/05/25 00:42:49;;;;;;;13.58;7.70;;;;;;;8.85;95.91;100151.80;1588194;90;21464;-72
2021/05/25 00:45:16;;;;;;;18.20;8.63;;;;;;;8.79;95.94;100155.69;1588134;90;20994;-72
2021/05/25 00:47:42;;;;;;;20.32;9.10;;;;;;;8.77;96.17;100151.05;1588113;90;21014;-72
2021/05/25 00:50:13;;;;;;;15.20;8.73;;;;;;;8.72;96.15;100140.97;1588062;90;21547;-72
2021/05/25 00:52:49;;;;;;;17.85;9.53;;;;;;;8.71;96.41;100140.70;1588167;90;21687;-72
2021/05/25 00:55:25;;;;;;;25.10;10.65;;;;;;;8.72;96.59;100136.87;1588208;90;21875;-72
2021/05/25 00:57:51;;;;;;;19.73;9.45;;;;;;;8.70;96.49;100137.70;1588200;90;20961;-72
2021/05/25 01:00:24;;;;;;;24.47;10.10;;;;;;;8.68;96.45;100133.62;1588103;90;20930;-71
2021/05/25 01:02:50;;;;;;;17.62;8.65;;;;;;;8.64;96.29;100127.95;1563312;90;21564;-73
2021/05/25 01:05:17;;;;;;;17.10;9.18;;;;;;;8.62;96.37;100127.42;1588225;90;20946;-73
2021/05/25 01:07:45;;;;;;;14.60;9.35;;;;;;;8.60;96.42;100124.16;1588127;90;21510;-73
2021/05/25 01:10:15;;;;;;;25.17;8.80;;;;;;;8.61;96.58;100125.78;1588074;90;21603;-73
2021/05/25 01:12:58;;;;;;;17.85;8.90;;;;;;;8.59;96.62;100128.81;1588180;90;20990;-73
2021/05/25 01:15:23;;;;;;;14.28;7.40;;;;;;;8.59;96.60;100130.73;1563327;90;21098;-73
2021/05/25 01:17:52;;;;;;;19.48;6.97;;;;;;;8.55;96.70;100128.30;1588330;90;20990;-72
2021/05/25 01:20:20;;;;;;;13.25;6.80;;;;;;;8.54;96.74;100125.30;1588432;90;21744;-72
2021/05/25 01:22:47;;;;;;;17.07;7.15;;;;;;;8.53;96.77;100127.22;1588139;90;21655;-72
2021/05/25 01:25:15;;;;;;;11.68;6.62;;;;;;;8.52;96.64;100123.41;1588252;90;21050;-72
2021/05/25 01:27:44;;;;;;;11.20;5.97;;;;;;;8.50;96.61;100125.61;1588204;90;20982;-73
2021/05/25 01:30:11;;;;;;;13.72;7.15;;;;;;;8.48;96.62;100127.27;1588378;90;21580;-72
2021/05/25 01:32:38;;;;;;;19.37;6.40;;;;;;;8.47;96.67;100132.48;1588258;90;20998;-72
2021/05/25 01:35:06;;;;;;;14.55;5.87;;;;;;;8.46;96.69;100131.39;1590748;89;21053;-72
2021/05/25 01:37:33;;;;;;;17.65;6.87;;;;;;;8.45;96.72;100129.21;1591107;90;21557;-72
2021/05/25 01:39:59;;;;;;;10.30;5.62;;;;;;;8.45;96.86;100129.21;1591086;90;21572;-72
2021/05/25 01:42:34;;;;;;;14.05;6.03;;;;;;;8.44;96.77;100132.23;1591107;89;21601;-72
2021/05/25 01:45:00;;;;;;;12.80;5.78;;;;;;;8.43;96.74;100130.05;1591082;89;21553;-72
2021/05/25 01:47:27;;;;;;;12.03;6.33;;;;;;;8.40;96.69;100131.99;1591126;90;21058;-72
2021/05/25 01:50:10;;;;;;;9.45;6.15;;;;;;;8.37;96.75;100135.30;1591092;90;21017;-72
2021/05/25 01:52:22;;;;;;;13.90;5.90;;;;;;;8.36;96.72;100136.41;1588089;90;20977;-72
2021/05/25 01:54:48;;;;;;;12.93;6.35;;;;;;;8.34;96.82;100134.50;1591151;90;20954;-72
2021/05/25 01:57:14;;;;;;;12.00;5.92;;;;;;;8.34;96.96;100131.77;1591019;89;21085;-71
2021/05/25 01:59:41;;;;;;;7.47;5.30;;;;;;;8.35;96.93;100132.59;1591133;90;20927;-72
2021/05/25 02:02:07;;;;;;;10.38;6.30;;;;;;;8.34;97.08;100124.93;1591183;89;20966;-73
2021/05/25 02:04:33;;;;;;;10.55;5.87;;;;;;;8.35;97.21;100127.93;1591072;90;21052;-72
2021/05/25 02:07:00;;;;;;;8.90;5.85;;;;;;;8.37;97.28;100130.38;1591164;90;21624;-71
2021/05/25 02:09:27;;;;;;;16.30;7.00;;;;;;;8.37;97.39;100134.48;1591096;90;21102;-71
2021/05/25 02:11:53;;;;;;;16.55;6.87;;;;;;;8.37;97.51;100132.56;1591153;90;20934;-71
2021/05/25 02:14:20;;;;;;;14.28;7.05;;;;;;;8.39;97.78;100129.54;1591035;90;21542;-72
2021/05/25 02:16:49;;;;;;;16.48;7.30;;;;;;;8.41;97.98;100130.89;1591052;89;20950;-72
2021/05/25 02:19:15;;;;;;;19.35;7.78;;;;;;;8.44;97.99;100139.08;1591083;90;21021;-73
2021/05/25 02:21:42;;;;;;;11.45;6.60;;;;;;;8.44;98.11;100141.81;1591129;90;20982;-72
2021/05/25 02:24:08;;;;;;;20.20;7.33;;;;;;;8.47;98.63;100142.05;1591013;89;20990;-71
2021/05/25 02:26:35;;;;;;;19.20;8.20;;;;;;;8.52;98.87;100141.19;1590888;90;21033;-72
2021/05/25 02:29:02;;;;;;;10.45;5.67;;;;;;;8.55;98.84;100140.06;1591004;89;21117;-73
2021/05/25 02:31:30;;;;;;;10.78;4.62;;;;;;;8.60;99.01;100148.78;1591107;90;20952;-74
2021/05/25 02:33:56;;;;;;;10.72;5.12;;;;;;;8.66;99.21;100143.52;1591021;89;21105;-74
2021/05/25 02:36:26;;;;;;;15.80;6.65;;;;;;;8.71;99.37;100138.52;1591060;90;20974;-73
2021/05/25 02:38:52;;;;;;;12.82;6.40;;;;;;;8.77;99.46;100139.55;1590988;89;20962;-72
2021/05/25 02:41:19;;;;;;;13.68;6.62;;;;;;;8.80;99.32;100141.71;1591082;89;20962;-72
2021/05/25 02:43:45;;;;;;;15.30;6.65;;;;;;;8.85;99.47;100140.84;1591131;89;21038;-72
2021/05/25 02:46:12;;;;;;;13.58;6.47;;;;;;;8.86;99.36;100139.19;1591045;89;22047;-73
2021/05/25 02:48:39;;;;;;;16.27;6.17;;;;;;;8.90;99.33;100146.27;1591019;89;20986;-73
2021/05/25 02:51:06;;;;;;;14.30;5.25;;;;;;;8.93;99.38;100147.88;1591068;90;20978;-74
2021/05/25 02:53:34;;;;;;;10.80;4.47;;;;;;;8.97;99.47;100147.30;1591156;90;20977;-74
2021/05/25 02:56:00;;;;;;;11.15;6.17;;;;;;;8.99;99.42;100147.82;1591188;89;20986;-73
2021/05/25 02:58:26;;;;;;;12.30;5.90;;;;;;;9.03;99.43;100151.61;1591166;89;21653;-73
2021/05/25 03:00:53;;;;;;;6.58;3.75;;;;;;;9.04;99.40;100158.17;1591058;89;21097;-73
2021/05/25 03:03:19;;;;;;;6.03;3.70;;;;;;;9.08;99.56;100163.33;1591072;90;20931;-74
2021/05/25 03:05:47;;;;;;;6.30;3.25;;;;;;;9.12;99.78;100157.53;1590956;90;21078;-73
2021/05/25 03:08:15;;;;;;;9.13;3.75;;;;;;;9.18;99.93;100156.37;1591107;90;20982;-71
2021/05/25 03:10:46;;;;;;;5.65;3.45;;;;;;;9.24;100.00;100162.02;1591035;89;21017;-72
2021/05/25 03:13:13;;;;;;;8.30;3.47;;;;;;;9.32;100.00;100163.30;1591073;90;21466;-71
2021/05/25 03:15:44;;;;;;;7.33;4.28;;;;;;;9.42;100.00;100160.99;1590993;89;20978;-72
2021/05/25 03:18:11;;;;;;;4.45;3.25;;;;;;;9.51;100.00;100167.45;1591094;89;21006;-72
2021/05/25 03:20:38;;;;;;;4.60;3.60;;;;;;;9.59;100.00;100161.33;1591155;90;20982;-72
2021/05/25 03:23:06;;;;;;;6.80;4.30;;;;;;;9.71;100.00;100158.97;1591132;90;21051;-72
2021/05/25 03:25:33;;;;;;;6.40;3.95;;;;;;;9.83;100.00;100166.73;1590992;90;21086;-72
2021/05/25 03:27:59;;;;;;;7.40;3.70;;;;;;;9.96;100.00;100163.81;1591103;90;21538;-71
2021/05/25 03:30:27;;;;;;;10.72;4.55;;;;;;;10.07;100.00;100162.55;1590899;89;21077;-72
2021/05/25 03:32:55;;;;;;;6.87;3.60;;;;;;;10.19;100.00;100158.27;1590907;89;21006;-72
2021/05/25 03:35:23;;;;;;;5.70;3.65;;;;;;;10.30;100.00;100154.81;1588967;89;21064;-74
2021/05/25 03:37:49;;;;;;;8.45;3.50;;;;;;;10.42;100.00;100152.95;1588168;90;20954;-71
2021/05/25 03:40:17;;;;;;;6.28;3.22;;;;;;;10.53;100.00;100157.97;1588184;90;21014;-71
2021/05/25 03:42:50;;;;;;;5.62;3.30;;;;;;;10.66;100.00;100154.20;1586663;90;21097;-72
2021/05/25 03:45:17;;;;;;;4.03;3.17;;;;;;;10.79;100.00;100147.36;1587808;90;21083;-71
2021/05/25 03:47:44;;;;;;;6.10;3.12;;;;;;;10.94;100.00;100149.02;1587412;90;21081;-71
2021/05/25 03:50:11;;;;;;;4.45;3.35;;;;;;;11.07;100.00;100150.94;1586613;90;21118;-71
2021/05/25 03:52:43;;;;;;;4.37;2.95;;;;;;;11.22;100.00;100153.38;1586321;90;21089;-73
2021/05/25 03:55:22;;;;;;;5.65;3.35;;;;;;;11.36;100.00;100156.14;1586128;90;21138;-74
2021/05/25 04:00:12;;;;;;;3.77;2.90;;;;;;;11.68;100.00;100151.03;1587370;90;21072;-74
2021/05/25 04:02:38;;;;;;;3.67;2.80;;;;;;;11.81;99.84;100147.48;1586841;90;20962;-72
2021/05/25 04:05:07;;;;;;;3.87;3.10;;;;;;;11.96;99.54;100149.63;1586926;90;20991;-74
2021/05/25 04:07:33;;;;;;;7.92;2.90;;;;;;;12.11;99.40;100145.16;1586880;90;21740;-74
2021/05/25 04:10:00;;;;;;;4.08;2.20;;;;;;;12.28;98.67;100145.27;1587035;90;21532;-72
2021/05/25 04:12:27;;;;;;;9.23;2.17;;;;;;;12.45;96.01;100142.64;1587377;90;21178;-73
2021/05/25 04:14:53;;;;;;;4.67;2.10;;;;;;;12.66;95.36;100136.62;1587290;90;21051;-72
2021/05/25 04:17:21;;;;;;;9.83;1.90;;;;;;;12.85;93.40;100142.13;1587319;90;21569;-74
2021/05/25 04:19:47;;;;;;;2.98;1.92;;;;;;;13.05;90.32;100144.91;1587439;90;21034;-74
2021/05/25 04:22:14;;;;;;;4.37;2.45;;;;;;;13.24;87.88;100130.91;1587199;90;21140;-74
2021/05/25 04:24:41;;;;;;;5.53;2.30;;;;;;;13.40;86.44;100129.88;1587233;90;21777;-74
2021/05/25 04:27:08;;;;;;;8.23;2.15;;;;;;;13.56;86.44;100131.05;1587231;90;21046;-74
2021/05/25 04:29:34;;;;;;;11.65;2.45;;;;;;;13.70;86.38;100126.21;1587248;90;21018;-72
2021/05/25 04:32:01;;;;;;;7.60;2.35;;;;;;;13.83;85.62;100121.69;1587143;90;21598;-72
2021/05/25 04:34:27;;;;;;;7.65;2.55;;;;;;;13.98;86.13;100120.37;1587630;89;21030;-74
2021/05/25 04:36:54;;;;;;;5.47;2.30;;;;;;;14.12;86.39;100123.21;1590267;90;21062;-74
2021/05/25 04:39:20;;;;;;;4.35;1.82;;;;;;;14.25;85.96;100124.75;1590091;89;21664;-74
2021/05/25 04:41:47;;;;;;;6.08;1.90;;;;;;;14.38;85.74;100123.20;1590140;89;21094;-73
2021/05/25 04:44:13;;;;;;;3.37;1.60;;;;;;;14.51;86.01;100110.34;1590419;90;21728;-74
2021/05/25 04:46:41;;;;;;;3.92;1.60;;;;;;;14.64;84.06;100109.34;1590239;90;20950;-73
2021/05/25 04:49:08;;;;;;;4.60;1.37;;;;;;;14.75;82.99;100106.47;1590097;90;21920;-72
2021/05/25 04:51:35;;;;;;;3.15;1.40;;;;;;;14.85;81.98;100101.16;1589586;90;21055;-72
2021/05/25 04:54:02;;;;;;;7.35;1.70;;;;;;;14.90;79.24;100106.50;1589695;90;20935;-73
2021/05/25 04:56:29;;;;;;;3.40;1.15;;;;;;;14.92;79.15;100108.94;1589774;90;20978;-72
2021/05/25 04:58:55;;;;;;;3.17;1.40;;;;;;;14.95;79.25;100118.77;1589769;90;20959;-72
2021/05/25 05:01:22;;;;;;;3.83;1.20;;;;;;;14.98;78.39;100120.05;1589666;90;21842;-72
2021/05/25 05:03:48;;;;;;;1.62;1.10;;;;;;;15.02;77.29;100112.12;1589721;90;20986;-73
2021/05/25 05:06:15;;;;;;;2.17;1.05;;;;;;;15.05;76.28;100103.73;1589628;90;21002;-72
2021/05/25 05:08:43;;;;;;;2.33;0.93;;;;;;;15.08;74.13;100107.22;1589663;90;21036;-72
2021/05/25 05:11:11;;;;;;;4.08;0.90;;;;;;;15.13;72.93;100109.22;1589664;90;21585;-71
2021/05/25 05:13:39;;;;;;;3.33;0.90;;;;;;;15.19;71.24;100107.09;1589669;90;21567;-71
2021/05/25 05:16:07;;;;;;;4.90;1.40;;;;;;;15.29;71.71;100111.43;1589604;89;21014;-73
2021/05/25 05:18:33;;;;;;;1.72;1.00;;;;;;;15.37;66.27;100103.09;1589718;90;21126;-73
2021/05/25 05:21:00;;;;;;;3.60;0.82;;;;;;;15.44;67.03;100108.09;1589565;90;20992;-73
2021/05/25 05:23:27;;;;;;;3.33;1.17;;;;;;;15.50;64.88;100102.61;1590702;90;21037;-73
2021/05/25 05:25:53;;;;;;;6.17;1.15;;;;;;;15.53;66.28;100099.17;1591008;89;21189;-72
2021/05/25 05:28:20;;;;;;;1.42;0.98;;;;;;;15.55;67.21;100103.80;1590434;89;21094;-74
2021/05/25 05:30:47;;;;;;;7.80;1.30;;;;;;;15.59;67.71;100103.39;1589433;89;21014;-72
2021/05/25 05:33:14;;;;;;;4.62;1.25;;;;;;;15.64;67.08;100108.70;1589945;90;21046;-70
2021/05/25 05:35:40;;;;;;;2.33;1.02;;;;;;;15.68;65.92;100111.04;1589882;89;21033;-71
2021/05/25 05:38:07;;;;;;;11.75;2.00;;;;;;;15.70;65.61;100107.36;1590823;90;21040;-76
2021/05/25 05:40:34;;;;;;;5.08;1.40;;;;;;;15.75;67.03;100106.36;1590912;90;21077;-76
2021/05/25 05:43:01;;;;;;;7.72;1.22;;;;;;;15.83;66.55;100098.56;1590887;90;21546;-72
2021/05/25 05:45:28;;;;;;;3.72;2.47;;;;;;;15.92;65.48;100104.03;1590908;89;21017;-72
2021/05/25 05:47:55;;;;;;;5.10;2.05;;;;;;;16.02;64.44;100103.62;1590482;90;21093;-70
2021/05/25 05:50:21;;;;;;;5.42;1.35;;;;;;;16.12;64.51;100101.83;1590635;90;21479;-72
2021/05/25 05:52:48;;;;;;;6.12;1.22;;;;;;;16.26;64.66;100102.91;1590928;90;20965;-68
2021/05/25 05:55:17;;;;;;;3.67;1.07;;;;;;;16.40;64.92;100102.84;1590999;89;21006;-68
2021/05/25 05:57:46;;;;;;;3.92;1.17;;;;;;;16.47;60.64;100098.14;1590910;90;21158;-68
2021/05/25 06:00:15;;;;;;;5.47;1.37;;;;;;;16.44;61.29;100095.47;1591112;90;20982;-68
2021/05/25 06:02:41;;;;;;;3.42;1.40;;;;;;;16.39;61.62;100097.07;1591010;90;21112;-69
2021/05/25 06:05:09;;;;;;;6.42;4.42;;;;;;;16.35;62.74;100100.86;1580458;88;21094;-71
2021/05/25 06:07:36;;;;;;;4.65;2.87;;;;;;;16.38;62.85;100099.61;1564826;91;21627;-72
2021/05/25 06:10:04;;;;;;;5.60;2.30;;;;;;;16.44;62.29;100104.36;1564904;91;20987;-74
2021/05/25 06:12:31;;;;;;;5.15;1.75;;;;;;;16.47;62.99;100098.95;1565073;91;21062;-74
2021/05/25 06:14:57;;;;;;;5.35;2.08;;;;;;;16.57;62.53;100103.83;1573888;88;21076;-69
2021/05/25 06:17:24;;;;;;;8.00;6.20;;;;;;;16.65;62.30;100101.57;1616814;88;21060;-65
2021/05/25 06:19:51;;;;;;;7.45;4.30;;;;;;;16.67;61.22;100100.66;1617255;88;21000;-66
2021/05/25 06:22:21;;;;;;;9.43;3.20;;;;;;;16.66;60.80;100102.61;1615280;88;20957;-65
2021/05/25 06:24:46;;;;;;;3.42;2.30;;;;;;;16.75;62.49;100098.36;1616440;88;21037;-69
2021/05/25 06:27:13;;;;;;;5.28;2.10;;;;;;;16.94;60.41;100095.02;1616586;88;21299;-66
2021/05/25 06:29:39;;;;;;;9.33;1.77;;;;;;;17.07;58.38;100098.03;1616362;88;20985;-68
2021/05/25 06:32:06;;;;;;;2.87;1.40;;;;;;;17.15;58.09;100092.38;1616382;88;21021;-71
2021/05/25 06:34:32;;;;;;;7.28;2.15;;;;;;;17.19;57.49;100101.39;1616500;88;21524;-70
2021/05/25 06:36:59;;;;;;;4.47;3.10;;;;;;;17.21;57.72;100097.70;1614520;88;21533;-70
2021/05/25 06:39:25;;;;;;;4.20;1.65;;;;;;;17.25;57.62;100101.40;1614507;88;21068;-73
2021/05/25 06:41:51;;;;;;;2.10;1.20;;;;;;;17.34;56.70;100106.22;1614404;88;20906;-68
2021/05/25 06:44:19;;;;;;;3.35;1.27;;;;;;;17.42;55.68;100103.91;1614363;88;21484;-73
2021/05/25 06:46:46;;;;;;;1.75;1.10;;;;;;;17.52;56.08;100097.89;1614352;88;21080;-72
2021/05/25 06:49:12;;;;;;;1.80;1.10;;;;;;;17.66;55.12;100095.59;1614439;88;20966;-71
2021/05/25 06:51:39;;;;;;;3.25;1.45;;;;;;;17.73;52.19;100084.70;1614416;88;21894;-75
2021/05/25 06:54:07;;;;;;;4.92;1.50;;;;;;;17.75;53.34;100083.77;1614300;88;21027;-72
2021/05/25 06:56:35;;;;;;;3.83;1.10;;;;;;;17.84;54.50;100085.61;1614356;88;20984;-73
2021/05/25 06:59:02;;;;;;;4.03;1.27;;;;;;;17.96;53.35;100079.98;1614210;88;20986;-77
2021/05/25 07:01:30;;;;;;;8.30;2.70;;;;;;;18.09;55.14;100074.62;1614415;88;21088;-76
2021/05/25 07:03:56;;;;;;;4.28;2.10;;;;;;;18.20;52.80;100077.13;1608774;88;21042;-77
2021/05/25 07:06:23;;;;;;;5.42;2.10;;;;;;;18.30;51.00;100082.17;1590305;90;21633;-73
2021/05/25 07:08:50;;;;;;;3.00;1.25;;;;;;;18.35;51.57;100079.72;1590123;90;21614;-72
2021/05/25 07:11:17;;;;;;;1.65;1.30;;;;;;;18.42;51.27;100066.83;1590002;90;21065;-70
2021/05/25 07:13:45;;;;;;;4.10;1.22;;;;;;;18.47;51.49;100061.02;1590343;90;21627;-69
2021/05/25 07:16:13;;;;;;;1.90;0.90;;;;;;;18.45;51.04;100055.00;1590389;90;21098;-69
2021/05/25 07:18:41;;;;;;;1.25;1.10;;;;;;;18.48;53.50;100052.86;1590180;90;21520;-69
2021/05/25 07:21:08;;;;;;;1.90;1.10;;;;;;;18.60;51.92;100052.57;1583843;89;21096;-69
2021/05/25 07:23:34;;;;;;;3.10;1.92;;;;;;;18.68;51.51;100048.27;1587722;89;21045;-73
2021/05/25 07:26:02;;;;;;;2.83;1.42;;;;;;;18.75;51.30;100051.22;1603342;88;20932;-70
2021/05/25 07:28:29;;;;;;;3.92;2.20;;;;;;;18.78;49.45;100044.95;1603461;89;21083;-72
2021/05/25 07:30:55;;;;;;;8.98;1.75;;;;;;;18.82;50.51;100038.67;1603622;88;20960;-73
2021/05/25 07:33:24;;;;;;;6.28;1.10;;;;;;;18.89;50.13;100034.09;1578551;91;21030;-73
2021/05/25 07:35:50;;;;;;;2.50;1.15;;;;;;;18.93;51.61;100028.61;1605279;89;20972;-73
2021/05/25 07:38:17;;;;;;;3.65;1.07;;;;;;;19.07;50.67;100035.31;1608812;89;21016;-73
2021/05/25 07:40:44;;;;;;;5.00;1.00;;;;;;;19.29;50.67;100042.19;1591865;90;21986;-73
2021/05/25 07:43:11;;;;;;;2.35;1.37;;;;;;;19.54;48.25;100030.85;1608730;89;20928;-72
2021/05/25 07:45:38;;;;;;;4.95;0.80;;;;;;;19.75;47.75;100032.09;1608804;88;21028;-71
2021/05/25 07:48:05;;;;;;;3.05;0.70;;;;;;;19.85;46.28;100025.14;1608720;89;21619;-72
2021/05/25 07:50:32;;;;;;;6.10;0.90;;;;;;;19.88;46.06;100021.62;1608651;89;20949;-76
2021/05/25 07:53:00;;;;;;;1.47;0.68;;;;;;;19.88;48.09;100029.17;1608661;87;21090;-81
2021/05/25 07:55:30;;;;;;;0.70;0.60;;;;;;;19.86;46.74;100036.50;1608512;87;21617;-78
2021/05/25 07:57:57;;;;;;;2.62;0.93;;;;;;;19.82;45.46;100047.35;1592096;90;21680;-73
2021/05/25 08:00:23;;;;;;;2.85;1.00;;;;;;;19.75;46.45;100040.45;1608804;89;21267;-78
2021/05/25 08:02:50;;;;;;;4.10;1.00;;;;;;;19.86;48.23;100038.48;1607821;89;20976;-81
2021/05/25 08:05:18;;;;;;;0.95;0.60;;;;;;;20.09;47.91;100044.35;1581749;90;21645;-77
2021/05/25 08:07:44;;;;;;;7.80;2.58;;;;;;;20.24;47.22;100044.61;1590607;90;21082;-75
2021/05/25 08:10:13;;;;;;;4.28;1.00;;;;;;;20.20;47.12;100047.36;1590751;90;21223;-73
2021/05/25 08:12:39;;;;;;;1.75;0.80;;;;;;;20.25;45.00;100056.78;1590888;90;21618;-83
2021/05/25 08:15:08;;;;;;;3.58;0.80;;;;;;;20.42;46.72;100048.58;1604808;87;21046;-71
2021/05/25 08:22:48;;;;;;;8.50;1.60;;;;;;;20.99;44.58;100040.60;1591656;89;21078;-73
2021/05/25 08:25:17;;;;;;;2.02;0.90;;;;;;;21.05;44.32;100043.30;1581344;90;21115;-72
2021/05/25 08:27:46;;;;;;;1.10;0.70;;;;;;;21.17;44.73;100042.88;1590685;90;21026;-72
2021/05/25 08:30:15;;;;;;;2.00;0.70;;;;;;;21.38;43.89;100037.63;1590771;90;21134;-72
2021/05/25 08:32:42;;;;;;;3.65;0.78;;;;;;;21.50;44.83;100037.41;1587681;90;21042;-69
2021/05/25 08:35:09;;;;;;;2.87;0.80;;;;;;;21.64;43.37;100039.00;1604922;88;21048;-72
2021/05/25 08:37:36;;;;;;;3.65;1.30;;;;;;;21.83;43.73;100044.24;1592214;88;21061;-71
2021/05/25 08:40:06;;;;;;;2.37;2.12;;;;;;;21.97;42.52;100043.80;1588204;89;20963;-72
2021/05/25 08:42:32;;;;;;;5.08;2.22;;;;;;;21.99;41.40;100039.23;1588187;89;21071;-71
2021/05/25 08:45:02;;;;;;;3.35;2.20;;;;;;;21.95;42.38;100028.62;1588074;90;20968;-71
2021/05/25 08:47:31;;;;;;;3.33;1.65;;;;;;;21.95;43.42;100025.83;1587907;90;21545;-71
2021/05/25 08:49:57;;;;;;;3.67;1.80;;;;;;;22.02;42.50;100020.33;1587630;89;21072;-70
2021/05/25 08:52:24;;;;;;;4.33;2.75;;;;;;;22.05;43.41;100020.97;1588189;90;21055;-70
2021/05/25 08:54:50;;;;;;;3.55;1.32;;;;;;;22.02;42.36;100013.34;1590976;89;21074;-71
2021/05/25 08:57:17;;;;;;;1.85;1.32;;;;;;;21.92;40.68;100023.80;1600046;89;21037;-71
2021/05/25 08:59:43;;;;;;;4.70;1.27;;;;;;;21.80;42.13;100019.85;1600074;89;21531;-71
2021/05/25 09:02:13;;;;;;;2.55;0.80;;;;;;;21.94;41.27;100013.84;1600113;89;21045;-71
2021/05/25 09:05:07;;;;;;;4.72;1.05;;;;;;;22.13;41.39;100017.66;1600170;89;20913;-71
2021/05/25 09:07:49;;;;;;;4.67;1.20;;;;;;;22.14;41.30;100017.28;1579885;89;21089;-71
2021/05/25 09:10:21;;;;;;;11.65;2.77;;;;;;;22.18;41.96;100021.52;1588188;90;21654;-72
2021/05/25 09:12:53;;;;;;;2.58;1.07;;;;;;;22.18;41.96;100021.52;1597269;89;21007;-70
2021/05/25 09:15:41;;;;;;;1.77;0.75;;;;;;;22.27;41.03;100022.82;1605047;89;20951;-71
2021/05/25 09:18:29;;;;;;;1.67;0.80;;;;;;;22.31;40.30;100020.87;1586807;90;21086;-71
2021/05/25 09:21:00;;;;;;;1.85;0.75;;;;;;;22.23;40.90;100017.78;1563618;91;21176;-72
2021/05/25 09:23:39;;;;;;;4.08;1.25;;;;;;;22.17;40.47;100016.52;1601315;89;21036;-72
2021/05/25 09:26:18;;;;;;;3.75;1.30;;;;;;;22.20;40.98;100015.75;1601378;89;20965;-72
2021/05/25 09:28:58;;;;;;;1.50;1.10;;;;;;;22.36;41.10;100007.13;1597875;89;21065;-72
2021/05/25 09:31:47;;;;;;;3.37;1.00;;;;;;;22.61;41.32;100006.76;1597409;89;21012;-72
2021/05/25 09:34:21;;;;;;;3.02;1.05;;;;;;;22.91;42.32;100003.85;1563534;91;21966;-72
2021/05/25 09:37:08;;;;;;;4.45;0.72;;;;;;;23.08;39.27;100011.38;1563427;90;21541;-72
2021/05/25 09:39:44;;;;;;;3.05;1.00;;;;;;;23.02;39.78;99999.14;1563656;91;21616;-71
2021/05/25 09:42:12;;;;;;;4.30;0.85;;;;;;;23.00;39.99;100002.13;1563678;91;20963;-71
2021/05/25 09:44:59;;;;;;;7.95;0.95;;;;;;;23.22;40.98;100002.45;1563612;91;20991;-72
2021/05/25 09:47:37;;;;;;;10.88;3.95;;;;;;;23.44;40.91;99996.39;1563620;91;21111;-72
2021/05/25 09:50:06;;;;;;;2.92;0.70;;;;;;;23.50;40.35;99989.22;1560282;91;21102;-72
2021/05/25 09:52:33;;;;;;;4.85;1.60;;;;;;;23.52;39.59;99983.23;1563671;91;21010;-71
2021/05/25 09:55:09;;;;;;;5.92;2.17;;;;;;;23.55;40.78;99977.67;1563755;90;21491;-71
2021/05/25 09:57:46;;;;;;;4.05;1.20;;;;;;;23.56;39.34;99966.67;1575115;91;21054;-71
2021/05/25 10:00:36;;;;;;;4.20;1.45;;;;;;;23.42;39.21;99953.95;1561167;92;21682;-73
2021/05/25 10:03:14;;;;;;;6.37;1.40;;;;;;;23.37;40.92;99953.73;1563660;91;20920;-70
2021/05/25 10:05:46;;;;;;;5.67;1.30;;;;;;;23.52;41.27;99944.80;1563681;91;20951;-71
2021/05/25 10:08:16;;;;;;;6.55;1.05;;;;;;;23.63;39.94;99940.68;1563580;91;20999;-70
2021/05/25 10:10:44;;;;;;;7.95;1.05;;;;;;;23.46;40.20;99947.77;1574924;91;21046;-71
2021/05/25 10:13:13;;;;;;;2.70;0.82;;;;;;;23.32;40.13;99944.89;1553232;90;21063;-71
2021/05/25 10:15:42;;;;;;;4.58;1.12;;;;;;;23.40;41.35;99938.14;1588249;90;21013;-71
2021/05/25 10:18:17;;;;;;;1.07;0.90;;;;;;;23.51;41.48;99936.79;1588293;90;20958;-71
2021/05/25 10:20:39;;;;;;;1.92;1.22;;;;;;;23.61;39.48;99935.47;1587418;90;20934;-71
2021/05/25 10:23:06;;;;;;;1.87;1.10;;;;;;;23.61;38.65;99941.08;1588220;90;21050;-71
2021/05/25 10:25:34;;;;;;;4.62;1.80;;;;;;;23.49;38.93;99948.98;1588233;90;21069;-71
2021/05/25 10:28:10;;;;;;;6.28;1.60;;;;;;;23.37;40.05;99936.92;1588242;90;20962;-71
2021/05/25 10:30:50;;;;;;;2.05;1.15;;;;;;;23.55;40.20;99945.45;1565604;90;20998;-73
2021/05/25 10:33:21;;;;;;;1.98;1.00;;;;;;;23.77;40.16;99944.91;1588286;90;21623;-70
2021/05/25 10:36:03;;;;;;;2.75;0.90;;;;;;;23.83;39.23;99953.74;1588148;90;21107;-70
2021/05/25 10:38:46;;;;;;;1.95;0.68;;;;;;;23.85;40.49;99949.34;1588263;90;21095;-70
2021/05/25 10:41:35;;;;;;;7.03;4.00;;;;;;;23.89;40.47;99931.13;1588288;90;20966;-71
2021/05/25 10:44:01;;;;;;;7.08;2.27;;;;;;;23.78;39.16;99935.91;1587657;90;20940;-71
2021/05/25 10:46:30;;;;;;;3.83;2.47;;;;;;;23.71;40.07;99931.07;1586884;90;20942;-71
2021/05/25 10:49:16;;;;;;;2.25;1.35;;;;;;;23.75;40.03;99928.28;1586812;90;21043;-71
2021/05/25 10:51:52;;;;;;;1.10;0.72;;;;;;;23.89;40.94;99918.52;1587570;90;21860;-71
2021/05/25 10:54:35;;;;;;;4.03;1.07;;;;;;;23.87;40.17;99909.70;1580855;90;21034;-71
2021/05/25 10:57:36;;;;;;;2.62;0.90;;;;;;;24.00;39.04;99906.73;1587866;90;20992;-72
2021/05/25 11:00:24;;;;;;;1.47;0.70;;;;;;;24.04;40.73;99914.55;1587723;90;21138;-72
2021/05/25 11:03:20;;;;;;;1.75;0.90;;;;;;;24.02;38.81;99909.34;1585876;89;21601;-72
2021/05/25 11:05:59;;;;;;;1.67;0.88;;;;;;;23.68;40.01;99908.06;1562933;91;21805;-72
2021/05/25 11:08:29;;;;;;;3.20;0.53;;;;;;;23.36;37.60;99906.50;1562864;91;21045;-71
2021/05/25 11:11:03;;;;;;;1.17;0.75;;;;;;;22.98;39.28;99902.32;1562685;91;21125;-71
2021/05/25 11:13:32;;;;;;;3.17;0.75;;;;;;;22.81;40.36;99889.02;1583611;90;21598;-72
2021/05/25 11:16:37;;;;;;;2.55;0.72;;;;;;;22.88;40.96;99899.66;1587450;90;21019;-72
2021/05/25 11:19:12;;;;;;;1.50;0.85;;;;;;;22.91;39.87;99898.88;1567217;90;21157;-72
2021/05/25 11:21:59;;;;;;;5.70;1.42;;;;;;;22.70;40.69;99895.30;1587685;90;21026;-72
2021/05/25 11:24:37;;;;;;;3.02;1.15;;;;;;;22.61;41.66;99888.44;1583373;90;20979;-72
2021/05/25 11:27:34;;;;;;;4.28;1.02;;;;;;;22.60;41.13;99886.23;1587710;90;21082;-72
2021/05/25 11:30:11;;;;;;;6.75;2.20;;;;;;;22.50;41.52;99879.19;1587696;90;21062;-72
2021/05/25 11:32:47;;;;;;;31.02;15.65;;;;;;;22.41;41.92;99882.31;1587309;90;21849;-71
2021/05/25 11:35:22;;;;;;;6.83;2.90;;;;;;;22.38;41.91;99880.29;1587161;90;21294;-71
2021/05/25 11:37:53;;;;;;;6.28;1.72;;;;;;;22.30;43.00;99877.23;1587714;90;21026;-71
2021/05/25 11:40:30;;;;;;;6.40;1.40;;;;;;;22.22;42.56;99867.97;1587760;90;21010;-71
2021/05/25 11:42:56;;;;;;;12.75;2.20;;;;;;;22.14;42.69;99878.08;1587812;90;21123;-71
2021/05/25 11:45:26;;;;;;;3.22;1.52;;;;;;;22.14;44.06;99871.89;1587029;90;21042;-72